sensor_id;sensor_type;location;lat;lon;timestamp;P1;durP1;ratioP1;P2;durP2;ratioP2
3299;SDS011;1662;49.310;8.134;2024-01-16T00:00:33;8.33;;;6.10;;
3299;SDS011;1662;49.310;8.134;2024-01-16T00:02:59;11.40;;;5.90;;
3299;SDS011;1662;49.310;8.134;2024-01-16T00:05:25;6.60;;;5.70;;
3299;SDS011;1662;49.310;8.134;2024-01-16T00:07:53;7.72;;;6.95;;
3299;SDS011;1662;49.310;8.134;2024-01-16T00:10:18;11.77;;;6.77;;
3299;SDS011;1662;49.310;8.134;2024-01-16T00:12:44;10.63;;;6.80;;
3299;SDS011;1662;49.310;8.134;2024-01-16T00:15:10;8.83;;;7.30;;
3299;SDS011;1662;49.310;8.134;2024-01-16T00:17:35;11.53;;;7.03;;
3299;SDS011;1662;49.310;8.134;2024-01-16T00:20:03;8.90;;;8.00;;
3299;SDS011;1662;49.310;8.134;2024-01-16T00:22:30;8.88;;;7.95;;
3299;SDS011;1662;49.310;8.134;2024-01-16T00:24:55;7.33;;;6.73;;
3299;SDS011;1662;49.310;8.134;2024-01-16T00:27:21;10.93;;;8.10;;
3299;SDS011;1662;49.310;8.134;2024-01-16T00:29:47;13.20;;;7.57;;
3299;SDS011;1662;49.310;8.134;2024-01-16T00:32:13;10.80;;;8.80;;
3299;SDS011;1662;49.310;8.134;2024-01-16T00:34:41;14.55;;;8.55;;
3299;SDS011;1662;49.310;8.134;2024-01-16T00:37:10;12.13;;;8.75;;
3299;SDS011;1662;49.310;8.134;2024-01-16T00:39:35;11.07;;;8.93;;
3299;SDS011;1662;49.310;8.134;2024-01-16T00:42:01;9.57;;;7.83;;
3299;SDS011;1662;49.310;8.134;2024-01-16T00:44:28;12.57;;;8.43;;
3299;SDS011;1662;49.310;8.134;2024-01-16T00:46:53;9.10;;;8.03;;
3299;SDS011;1662;49.310;8.134;2024-01-16T00:49:21;10.10;;;8.35;;
3299;SDS011;1662;49.310;8.134;2024-01-16T00:51:47;13.47;;;8.47;;
3299;SDS011;1662;49.310;8.134;2024-01-16T00:54:13;8.93;;;8.03;;
3299;SDS011;1662;49.310;8.134;2024-01-16T00:56:38;9.20;;;7.13;;
3299;SDS011;1662;49.310;8.134;2024-01-16T00:59:06;12.55;;;7.78;;
3299;SDS011;1662;49.310;8.134;2024-01-16T01:01:32;7.97;;;7.20;;
3299;SDS011;1662;49.310;8.134;2024-01-16T01:03:57;12.57;;;8.50;;
3299;SDS011;1662;49.310;8.134;2024-01-16T01:06:23;10.13;;;8.53;;
3299;SDS011;1662;49.310;8.134;2024-01-16T01:08:49;11.47;;;8.77;;
3299;SDS011;1662;49.310;8.134;2024-01-16T01:11:14;9.20;;;7.53;;
3299;SDS011;1662;49.310;8.134;2024-01-16T01:13:40;12.03;;;8.10;;
3299;SDS011;1662;49.310;8.134;2024-01-16T01:16:05;10.33;;;8.77;;
3299;SDS011;1662;49.310;8.134;2024-01-16T01:18:31;12.37;;;8.50;;
3299;SDS011;1662;49.310;8.134;2024-01-16T01:20:57;12.20;;;8.50;;
3299;SDS011;1662;49.310;8.134;2024-01-16T01:23:22;9.80;;;8.13;;
3299;SDS011;1662;49.310;8.134;2024-01-16T01:25:48;8.83;;;7.33;;
3299;SDS011;1662;49.310;8.134;2024-01-16T01:28:13;12.40;;;8.70;;
3299;SDS011;1662;49.310;8.134;2024-01-16T01:30:39;12.77;;;8.83;;
3299;SDS011;1662;49.310;8.134;2024-01-16T01:33:07;10.90;;;7.88;;
3299;SDS011;1662;49.310;8.134;2024-01-16T01:35:32;12.27;;;8.40;;
3299;SDS011;1662;49.310;8.134;2024-01-16T01:37:58;14.00;;;9.87;;
3299;SDS011;1662;49.310;8.134;2024-01-16T01:40:23;16.80;;;10.03;;
3299;SDS011;1662;49.310;8.134;2024-01-16T01:42:49;16.37;;;9.17;;
3299;SDS011;1662;49.310;8.134;2024-01-16T01:45:14;15.00;;;8.77;;
3299;SDS011;1662;49.310;8.134;2024-01-16T01:47:40;13.53;;;9.90;;
3299;SDS011;1662;49.310;8.134;2024-01-16T01:50:10;17.15;;;9.40;;
3299;SDS011;1662;49.310;8.134;2024-01-16T01:52:36;9.88;;;8.88;;
3299;SDS011;1662;49.310;8.134;2024-01-16T01:55:07;12.57;;;9.30;;
3299;SDS011;1662;49.310;8.134;2024-01-16T01:57:35;9.88;;;8.48;;
3299;SDS011;1662;49.310;8.134;2024-01-16T02:00:01;11.03;;;8.50;;
3299;SDS011;1662;49.310;8.134;2024-01-16T02:02:28;10.18;;;8.80;;
3299;SDS011;1662;49.310;8.134;2024-01-16T02:04:54;12.03;;;8.80;;
3299;SDS011;1662;49.310;8.134;2024-01-16T02:07:21;20.30;;;9.50;;
3299;SDS011;1662;49.310;8.134;2024-01-16T02:09:46;10.80;;;8.87;;
3299;SDS011;1662;49.310;8.134;2024-01-16T02:12:12;15.33;;;9.27;;
3299;SDS011;1662;49.310;8.134;2024-01-16T02:14:38;11.50;;;8.93;;
3299;SDS011;1662;49.310;8.134;2024-01-16T02:17:03;10.30;;;8.20;;
3299;SDS011;1662;49.310;8.134;2024-01-16T02:19:31;15.68;;;9.27;;
3299;SDS011;1662;49.310;8.134;2024-01-16T02:21:59;13.60;;;8.90;;
3299;SDS011;1662;49.310;8.134;2024-01-16T02:24:27;10.65;;;8.73;;
3299;SDS011;1662;49.310;8.134;2024-01-16T02:26:53;14.27;;;9.30;;
3299;SDS011;1662;49.310;8.134;2024-01-16T02:29:19;12.83;;;10.13;;
3299;SDS011;1662;49.310;8.134;2024-01-16T02:31:44;18.93;;;10.67;;
3299;SDS011;1662;49.310;8.134;2024-01-16T02:34:10;12.70;;;9.10;;
3299;SDS011;1662;49.310;8.134;2024-01-16T02:36:36;14.47;;;9.70;;
3299;SDS011;1662;49.310;8.134;2024-01-16T02:39:01;16.53;;;8.70;;
3299;SDS011;1662;49.310;8.134;2024-01-16T02:41:27;19.17;;;8.20;;
3299;SDS011;1662;49.310;8.134;2024-01-16T02:43:53;13.60;;;9.23;;
3299;SDS011;1662;49.310;8.134;2024-01-16T02:46:19;19.93;;;9.30;;
3299;SDS011;1662;49.310;8.134;2024-01-16T02:48:44;10.33;;;8.13;;
3299;SDS011;1662;49.310;8.134;2024-01-16T02:51:11;10.82;;;8.43;;
3299;SDS011;1662;49.310;8.134;2024-01-16T02:53:40;13.25;;;9.38;;
3299;SDS011;1662;49.310;8.134;2024-01-16T02:56:07;13.63;;;7.80;;
3299;SDS011;1662;49.310;8.134;2024-01-16T02:58:33;10.10;;;7.00;;
3299;SDS011;1662;49.310;8.134;2024-01-16T03:00:59;14.57;;;9.10;;
3299;SDS011;1662;49.310;8.134;2024-01-16T03:03:26;10.70;;;7.80;;
3299;SDS011;1662;49.310;8.134;2024-01-16T03:05:54;11.57;;;7.90;;
3299;SDS011;1662;49.310;8.134;2024-01-16T03:08:21;7.13;;;6.45;;
3299;SDS011;1662;49.310;8.134;2024-01-16T03:10:46;8.07;;;7.27;;
3299;SDS011;1662;49.310;8.134;2024-01-16T03:13:12;15.50;;;7.60;;
3299;SDS011;1662;49.310;8.134;2024-01-16T03:15:38;12.68;;;7.72;;
3299;SDS011;1662;49.310;8.134;2024-01-16T03:18:06;8.50;;;7.10;;
3299;SDS011;1662;49.310;8.134;2024-01-16T03:20:34;10.15;;;7.15;;
3299;SDS011;1662;49.310;8.134;2024-01-16T03:23:00;8.93;;;7.00;;
3299;SDS011;1662;49.310;8.134;2024-01-16T03:25:25;16.53;;;7.40;;
3299;SDS011;1662;49.310;8.134;2024-01-16T03:27:51;9.30;;;7.30;;
3299;SDS011;1662;49.310;8.134;2024-01-16T03:30:16;11.87;;;7.83;;
3299;SDS011;1662;49.310;8.134;2024-01-16T03:32:42;8.13;;;6.97;;
3299;SDS011;1662;49.310;8.134;2024-01-16T03:35:10;7.78;;;6.97;;
3299;SDS011;1662;49.310;8.134;2024-01-16T03:37:37;8.87;;;7.60;;
3299;SDS011;1662;49.310;8.134;2024-01-16T03:40:03;14.77;;;9.00;;
3299;SDS011;1662;49.310;8.134;2024-01-16T03:42:29;12.63;;;7.65;;
3299;SDS011;1662;49.310;8.134;2024-01-16T03:44:55;14.03;;;8.10;;
3299;SDS011;1662;49.310;8.134;2024-01-16T03:47:20;8.50;;;7.80;;
3299;SDS011;1662;49.310;8.134;2024-01-16T03:49:46;14.67;;;7.20;;
3299;SDS011;1662;49.310;8.134;2024-01-16T03:52:14;10.00;;;7.55;;
3299;SDS011;1662;49.310;8.134;2024-01-16T03:54:39;10.33;;;8.20;;
3299;SDS011;1662;49.310;8.134;2024-01-16T03:57:05;10.83;;;7.10;;
3299;SDS011;1662;49.310;8.134;2024-01-16T03:59:30;12.70;;;7.93;;
3299;SDS011;1662;49.310;8.134;2024-01-16T04:01:56;9.67;;;7.63;;
3299;SDS011;1662;49.310;8.134;2024-01-16T04:04:22;16.15;;;7.85;;
3299;SDS011;1662;49.310;8.134;2024-01-16T04:06:48;10.97;;;7.57;;
3299;SDS011;1662;49.310;8.134;2024-01-16T04:09:13;11.87;;;7.70;;
3299;SDS011;1662;49.310;8.134;2024-01-16T04:11:39;15.50;;;9.00;;
3299;SDS011;1662;49.310;8.134;2024-01-16T04:14:05;9.73;;;7.50;;
3299;SDS011;1662;49.310;8.134;2024-01-16T04:16:33;12.25;;;7.63;;
3299;SDS011;1662;49.310;8.134;2024-01-16T04:18:59;15.70;;;7.80;;
3299;SDS011;1662;49.310;8.134;2024-01-16T04:21:24;10.13;;;8.40;;
3299;SDS011;1662;49.310;8.134;2024-01-16T04:23:50;11.60;;;7.90;;
3299;SDS011;1662;49.310;8.134;2024-01-16T04:26:15;9.03;;;7.03;;
3299;SDS011;1662;49.310;8.134;2024-01-16T04:28:41;8.80;;;7.07;;
3299;SDS011;1662;49.310;8.134;2024-01-16T04:31:07;8.85;;;7.63;;
3299;SDS011;1662;49.310;8.134;2024-01-16T04:33:33;13.80;;;8.93;;
3299;SDS011;1662;49.310;8.134;2024-01-16T04:35:59;9.93;;;8.33;;
3299;SDS011;1662;49.310;8.134;2024-01-16T04:38:24;13.73;;;8.33;;
3299;SDS011;1662;49.310;8.134;2024-01-16T04:40:50;11.57;;;7.70;;
3299;SDS011;1662;49.310;8.134;2024-01-16T04:43:15;11.70;;;7.43;;
3299;SDS011;1662;49.310;8.134;2024-01-16T04:45:41;11.20;;;8.27;;
3299;SDS011;1662;49.310;8.134;2024-01-16T04:48:07;19.10;;;10.30;;
3299;SDS011;1662;49.310;8.134;2024-01-16T04:50:35;11.27;;;7.85;;
3299;SDS011;1662;49.310;8.134;2024-01-16T04:53:01;12.07;;;8.20;;
3299;SDS011;1662;49.310;8.134;2024-01-16T04:55:27;9.68;;;7.55;;
3299;SDS011;1662;49.310;8.134;2024-01-16T04:57:54;12.25;;;7.40;;
3299;SDS011;1662;49.310;8.134;2024-01-16T05:00:24;11.00;;;6.88;;
3299;SDS011;1662;49.310;8.134;2024-01-16T05:02:50;9.90;;;7.40;;
3299;SDS011;1662;49.310;8.134;2024-01-16T05:05:16;9.27;;;7.47;;
3299;SDS011;1662;49.310;8.134;2024-01-16T05:07:42;8.15;;;6.47;;
3299;SDS011;1662;49.310;8.134;2024-01-16T05:10:11;8.80;;;7.00;;
3299;SDS011;1662;49.310;8.134;2024-01-16T05:12:40;10.52;;;7.15;;
3299;SDS011;1662;49.310;8.134;2024-01-16T05:15:06;10.73;;;7.60;;
3299;SDS011;1662;49.310;8.134;2024-01-16T05:17:32;12.75;;;7.65;;
3299;SDS011;1662;49.310;8.134;2024-01-16T05:19:58;14.70;;;7.27;;
3299;SDS011;1662;49.310;8.134;2024-01-16T05:22:26;10.80;;;7.27;;
3299;SDS011;1662;49.310;8.134;2024-01-16T05:24:52;12.30;;;7.70;;
3299;SDS011;1662;49.310;8.134;2024-01-16T05:27:18;12.25;;;8.60;;
3299;SDS011;1662;49.310;8.134;2024-01-16T05:29:44;17.60;;;7.90;;
3299;SDS011;1662;49.310;8.134;2024-01-16T05:32:10;10.23;;;7.10;;
3299;SDS011;1662;49.310;8.134;2024-01-16T05:34:35;12.57;;;8.80;;
3299;SDS011;1662;49.310;8.134;2024-01-16T05:37:01;9.67;;;6.40;;
3299;SDS011;1662;49.310;8.134;2024-01-16T05:39:26;7.27;;;6.50;;
3299;SDS011;1662;49.310;8.134;2024-01-16T05:41:52;13.07;;;7.80;;
3299;SDS011;1662;49.310;8.134;2024-01-16T05:44:18;9.60;;;8.00;;
3299;SDS011;1662;49.310;8.134;2024-01-16T05:46:43;12.23;;;8.00;;
3299;SDS011;1662;49.310;8.134;2024-01-16T05:49:09;12.67;;;7.77;;
3299;SDS011;1662;49.310;8.134;2024-01-16T05:51:35;8.97;;;7.10;;
3299;SDS011;1662;49.310;8.134;2024-01-16T05:54:01;13.75;;;8.50;;
3299;SDS011;1662;49.310;8.134;2024-01-16T05:56:28;13.40;;;8.60;;
3299;SDS011;1662;49.310;8.134;2024-01-16T05:58:54;11.97;;;7.50;;
3299;SDS011;1662;49.310;8.134;2024-01-16T06:01:19;11.30;;;8.00;;
3299;SDS011;1662;49.310;8.134;2024-01-16T06:03:45;11.33;;;8.40;;
3299;SDS011;1662;49.310;8.134;2024-01-16T06:06:13;11.63;;;8.88;;
3299;SDS011;1662;49.310;8.134;2024-01-16T06:08:39;14.77;;;8.13;;
3299;SDS011;1662;49.310;8.134;2024-01-16T06:11:04;12.63;;;7.70;;
3299;SDS011;1662;49.310;8.134;2024-01-16T06:13:30;11.47;;;7.90;;
3299;SDS011;1662;49.310;8.134;2024-01-16T06:15:57;11.10;;;8.65;;
3299;SDS011;1662;49.310;8.134;2024-01-16T06:18:22;12.20;;;8.03;;
3299;SDS011;1662;49.310;8.134;2024-01-16T06:20:48;11.23;;;8.60;;
3299;SDS011;1662;49.310;8.134;2024-01-16T06:23:13;11.70;;;8.93;;
3299;SDS011;1662;49.310;8.134;2024-01-16T06:25:39;15.30;;;11.13;;
3299;SDS011;1662;49.310;8.134;2024-01-16T06:28:05;13.83;;;9.70;;
3299;SDS011;1662;49.310;8.134;2024-01-16T06:30:33;10.48;;;8.23;;
3299;SDS011;1662;49.310;8.134;2024-01-16T06:32:59;10.50;;;8.60;;
3299;SDS011;1662;49.310;8.134;2024-01-16T06:35:24;12.87;;;9.13;;
3299;SDS011;1662;49.310;8.134;2024-01-16T06:37:50;12.10;;;8.23;;
3299;SDS011;1662;49.310;8.134;2024-01-16T06:40:16;7.97;;;7.13;;
3299;SDS011;1662;49.310;8.134;2024-01-16T06:42:41;7.83;;;7.00;;
3299;SDS011;1662;49.310;8.134;2024-01-16T06:45:07;18.60;;;8.37;;
3299;SDS011;1662;49.310;8.134;2024-01-16T06:47:33;23.03;;;17.13;;
3299;SDS011;1662;49.310;8.134;2024-01-16T06:49:58;17.70;;;8.63;;
3299;SDS011;1662;49.310;8.134;2024-01-16T06:52:24;11.80;;;8.10;;
3299;SDS011;1662;49.310;8.134;2024-01-16T06:54:50;8.70;;;7.20;;
3299;SDS011;1662;49.310;8.134;2024-01-16T06:57:15;12.63;;;7.30;;
3299;SDS011;1662;49.310;8.134;2024-01-16T06:59:41;16.60;;;8.43;;
3299;SDS011;1662;49.310;8.134;2024-01-16T07:02:07;12.07;;;7.63;;
3299;SDS011;1662;49.310;8.134;2024-01-16T07:04:33;17.20;;;8.95;;
3299;SDS011;1662;49.310;8.134;2024-01-16T07:06:59;8.47;;;7.20;;
3299;SDS011;1662;49.310;8.134;2024-01-16T07:09:25;9.23;;;7.30;;
3299;SDS011;1662;49.310;8.134;2024-01-16T07:11:52;15.18;;;7.85;;
3299;SDS011;1662;49.310;8.134;2024-01-16T07:14:18;12.07;;;7.60;;
3299;SDS011;1662;49.310;8.134;2024-01-16T07:16:44;12.82;;;8.35;;
3299;SDS011;1662;49.310;8.134;2024-01-16T07:19:10;9.70;;;5.83;;
3299;SDS011;1662;49.310;8.134;2024-01-16T07:21:38;11.57;;;6.78;;
3299;SDS011;1662;49.310;8.134;2024-01-16T07:24:03;8.50;;;6.93;;
3299;SDS011;1662;49.310;8.134;2024-01-16T07:26:29;9.80;;;7.40;;
3299;SDS011;1662;49.310;8.134;2024-01-16T07:28:55;12.77;;;6.30;;
3299;SDS011;1662;49.310;8.134;2024-01-16T07:31:21;9.87;;;6.00;;
3299;SDS011;1662;49.310;8.134;2024-01-16T07:33:46;7.63;;;5.53;;
3299;SDS011;1662;49.310;8.134;2024-01-16T07:36:13;9.60;;;5.77;;
3299;SDS011;1662;49.310;8.134;2024-01-16T07:38:39;9.50;;;6.90;;
3299;SDS011;1662;49.310;8.134;2024-01-16T07:41:05;11.60;;;8.10;;
3299;SDS011;1662;49.310;8.134;2024-01-16T07:43:31;8.03;;;6.30;;
3299;SDS011;1662;49.310;8.134;2024-01-16T07:45:57;10.90;;;6.40;;
3299;SDS011;1662;49.310;8.134;2024-01-16T07:48:23;7.80;;;5.80;;
3299;SDS011;1662;49.310;8.134;2024-01-16T07:50:51;12.85;;;7.70;;
3299;SDS011;1662;49.310;8.134;2024-01-16T07:53:16;8.00;;;6.60;;
3299;SDS011;1662;49.310;8.134;2024-01-16T07:55:42;11.00;;;7.13;;
3299;SDS011;1662;49.310;8.134;2024-01-16T07:58:10;7.82;;;5.60;;
3299;SDS011;1662;49.310;8.134;2024-01-16T08:00:39;8.07;;;5.55;;
3299;SDS011;1662;49.310;8.134;2024-01-16T08:03:07;7.63;;;5.28;;
3299;SDS011;1662;49.310;8.134;2024-01-16T08:05:36;9.25;;;6.70;;
3299;SDS011;1662;49.310;8.134;2024-01-16T08:08:02;8.52;;;6.43;;
3299;SDS011;1662;49.310;8.134;2024-01-16T08:10:28;10.10;;;7.33;;
3299;SDS011;1662;49.310;8.134;2024-01-16T08:12:53;12.30;;;7.90;;
3299;SDS011;1662;49.310;8.134;2024-01-16T08:15:19;13.27;;;6.77;;
3299;SDS011;1662;49.310;8.134;2024-01-16T08:17:45;8.67;;;6.97;;
3299;SDS011;1662;49.310;8.134;2024-01-16T08:20:11;10.33;;;7.13;;
3299;SDS011;1662;49.310;8.134;2024-01-16T08:22:37;10.07;;;6.40;;
3299;SDS011;1662;49.310;8.134;2024-01-16T08:25:02;11.90;;;7.20;;
3299;SDS011;1662;49.310;8.134;2024-01-16T08:27:31;9.50;;;6.20;;
3299;SDS011;1662;49.310;8.134;2024-01-16T08:29:58;8.57;;;6.05;;
3299;SDS011;1662;49.310;8.134;2024-01-16T08:32:24;10.38;;;6.72;;
3299;SDS011;1662;49.310;8.134;2024-01-16T08:34:51;7.57;;;5.55;;
3299;SDS011;1662;49.310;8.134;2024-01-16T08:37:17;9.43;;;6.60;;
3299;SDS011;1662;49.310;8.134;2024-01-16T08:39:43;17.40;;;6.93;;
3299;SDS011;1662;49.310;8.134;2024-01-16T08:42:08;9.67;;;6.47;;
3299;SDS011;1662;49.310;8.134;2024-01-16T08:44:37;9.10;;;6.60;;
3299;SDS011;1662;49.310;8.134;2024-01-16T08:47:04;8.25;;;6.57;;
3299;SDS011;1662;49.310;8.134;2024-01-16T08:49:31;8.52;;;6.32;;
3299;SDS011;1662;49.310;8.134;2024-01-16T08:51:57;9.27;;;5.65;;
3299;SDS011;1662;49.310;8.134;2024-01-16T08:54:23;9.30;;;6.53;;
3299;SDS011;1662;49.310;8.134;2024-01-16T08:56:50;11.25;;;6.50;;
3299;SDS011;1662;49.310;8.134;2024-01-16T08:59:16;11.30;;;7.10;;
3299;SDS011;1662;49.310;8.134;2024-01-16T09:01:42;9.40;;;6.90;;
3299;SDS011;1662;49.310;8.134;2024-01-16T09:04:07;14.17;;;8.30;;
3299;SDS011;1662;49.310;8.134;2024-01-16T09:06:33;9.10;;;7.07;;
3299;SDS011;1662;49.310;8.134;2024-01-16T09:09:01;8.25;;;5.93;;
3299;SDS011;1662;49.310;8.134;2024-01-16T09:11:29;7.65;;;6.80;;
3299;SDS011;1662;49.310;8.134;2024-01-16T09:13:55;6.90;;;6.20;;
3299;SDS011;1662;49.310;8.134;2024-01-16T09:16:20;4.70;;;4.27;;
3299;SDS011;1662;49.310;8.134;2024-01-16T09:18:48;9.88;;;5.82;;
3299;SDS011;1662;49.310;8.134;2024-01-16T09:21:14;11.87;;;6.10;;
3299;SDS011;1662;49.310;8.134;2024-01-16T09:23:40;7.35;;;5.25;;
3299;SDS011;1662;49.310;8.134;2024-01-16T09:26:05;9.67;;;5.80;;
3299;SDS011;1662;49.310;8.134;2024-01-16T09:28:31;6.27;;;5.00;;
3299;SDS011;1662;49.310;8.134;2024-01-16T09:30:56;7.20;;;5.30;;
3299;SDS011;1662;49.310;8.134;2024-01-16T09:33:23;5.23;;;4.80;;
3299;SDS011;1662;49.310;8.134;2024-01-16T09:35:50;10.18;;;5.82;;
3299;SDS011;1662;49.310;8.134;2024-01-16T09:38:16;9.87;;;6.17;;
3299;SDS011;1662;49.310;8.134;2024-01-16T09:40:41;11.60;;;6.20;;
3299;SDS011;1662;49.310;8.134;2024-01-16T09:43:07;9.43;;;6.67;;
3299;SDS011;1662;49.310;8.134;2024-01-16T09:45:37;9.70;;;6.78;;
3299;SDS011;1662;49.310;8.134;2024-01-16T09:48:03;11.20;;;5.55;;
3299;SDS011;1662;49.310;8.134;2024-01-16T09:50:31;11.15;;;5.45;;
3299;SDS011;1662;49.310;8.134;2024-01-16T09:52:57;10.23;;;5.63;;
3299;SDS011;1662;49.310;8.134;2024-01-16T09:55:23;9.60;;;5.80;;
3299;SDS011;1662;49.310;8.134;2024-01-16T09:57:50;7.10;;;5.43;;
3299;SDS011;1662;49.310;8.134;2024-01-16T10:00:18;10.65;;;6.07;;
3299;SDS011;1662;49.310;8.134;2024-01-16T10:02:44;10.40;;;8.02;;
3299;SDS011;1662;49.310;8.134;2024-01-16T10:05:11;11.13;;;7.80;;
3299;SDS011;1662;49.310;8.134;2024-01-16T10:07:40;10.93;;;7.70;;
3299;SDS011;1662;49.310;8.134;2024-01-16T10:10:09;11.35;;;7.40;;
3299;SDS011;1662;49.310;8.134;2024-01-16T10:12:36;11.98;;;7.47;;
3299;SDS011;1662;49.310;8.134;2024-01-16T10:15:05;9.90;;;7.85;;
3299;SDS011;1662;49.310;8.134;2024-01-16T10:17:36;11.20;;;9.07;;
3299;SDS011;1662;49.310;8.134;2024-01-16T10:20:03;12.18;;;8.55;;
3299;SDS011;1662;49.310;8.134;2024-01-16T10:22:30;12.10;;;8.63;;
3299;SDS011;1662;49.310;8.134;2024-01-16T10:27:36;14.20;;;7.90;;
3299;SDS011;1662;49.310;8.134;2024-01-16T10:30:03;11.88;;;7.70;;
3299;SDS011;1662;49.310;8.134;2024-01-16T10:32:31;12.98;;;8.15;;
3299;SDS011;1662;49.310;8.134;2024-01-16T10:35:05;15.07;;;9.02;;
3299;SDS011;1662;49.310;8.134;2024-01-16T10:37:55;13.82;;;9.00;;
3299;SDS011;1662;49.310;8.134;2024-01-16T10:40:21;15.27;;;8.40;;
3299;SDS011;1662;49.310;8.134;2024-01-16T10:45:23;13.15;;;8.93;;
3299;SDS011;1662;49.310;8.134;2024-01-16T10:48:01;10.77;;;7.77;;
3299;SDS011;1662;49.310;8.134;2024-01-16T10:50:34;28.15;;;15.38;;
3299;SDS011;1662;49.310;8.134;2024-01-16T10:53:05;14.90;;;9.20;;
3299;SDS011;1662;49.310;8.134;2024-01-16T10:55:33;14.45;;;9.15;;
3299;SDS011;1662;49.310;8.134;2024-01-16T10:58:07;10.85;;;8.63;;
3299;SDS011;1662;49.310;8.134;2024-01-16T11:00:34;14.38;;;9.57;;
3299;SDS011;1662;49.310;8.134;2024-01-16T11:03:05;12.82;;;8.07;;
3299;SDS011;1662;49.310;8.134;2024-01-16T11:05:34;12.02;;;8.40;;
3299;SDS011;1662;49.310;8.134;2024-01-16T11:08:02;14.13;;;7.80;;
3299;SDS011;1662;49.310;8.134;2024-01-16T11:10:31;16.45;;;9.65;;
3299;SDS011;1662;49.310;8.134;2024-01-16T11:12:59;10.90;;;7.57;;
3299;SDS011;1662;49.310;8.134;2024-01-16T11:15:27;10.50;;;7.97;;
3299;SDS011;1662;49.310;8.134;2024-01-16T11:17:53;21.10;;;7.53;;
3299;SDS011;1662;49.310;8.134;2024-01-16T11:20:21;12.40;;;7.63;;
3299;SDS011;1662;49.310;8.134;2024-01-16T11:22:47;12.35;;;7.85;;
3299;SDS011;1662;49.310;8.134;2024-01-16T11:25:15;16.13;;;8.50;;
3299;SDS011;1662;49.310;8.134;2024-01-16T11:27:42;13.10;;;8.10;;
3299;SDS011;1662;49.310;8.134;2024-01-16T11:30:10;8.88;;;7.20;;
3299;SDS011;1662;49.310;8.134;2024-01-16T11:32:37;10.43;;;7.07;;
3299;SDS011;1662;49.310;8.134;2024-01-16T11:35:09;12.82;;;8.05;;
3299;SDS011;1662;49.310;8.134;2024-01-16T11:37:36;13.48;;;7.78;;
3299;SDS011;1662;49.310;8.134;2024-01-16T11:42:55;10.23;;;7.30;;
3299;SDS011;1662;49.310;8.134;2024-01-16T11:48:10;11.35;;;7.20;;
3299;SDS011;1662;49.310;8.134;2024-01-16T11:50:36;12.80;;;9.70;;
3299;SDS011;1662;49.310;8.134;2024-01-16T11:53:02;10.80;;;7.32;;
3299;SDS011;1662;49.310;8.134;2024-01-16T11:55:32;8.52;;;6.95;;
3299;SDS011;1662;49.310;8.134;2024-01-16T12:01:02;12.65;;;8.40;;
3299;SDS011;1662;49.310;8.134;2024-01-16T12:03:30;12.82;;;8.88;;
3299;SDS011;1662;49.310;8.134;2024-01-16T12:05:59;12.30;;;7.93;;
3299;SDS011;1662;49.310;8.134;2024-01-16T12:08:25;8.88;;;7.30;;
3299;SDS011;1662;49.310;8.134;2024-01-16T12:10:51;9.20;;;6.88;;
3299;SDS011;1662;49.310;8.134;2024-01-16T12:13:17;7.57;;;6.67;;
3299;SDS011;1662;49.310;8.134;2024-01-16T12:15:43;10.77;;;6.80;;
3299;SDS011;1662;49.310;8.134;2024-01-16T12:18:09;11.20;;;7.37;;
3299;SDS011;1662;49.310;8.134;2024-01-16T12:20:37;12.43;;;8.30;;
3299;SDS011;1662;49.310;8.134;2024-01-16T12:23:04;9.80;;;7.53;;
3299;SDS011;1662;49.310;8.134;2024-01-16T12:25:35;10.40;;;6.40;;
3299;SDS011;1662;49.310;8.134;2024-01-16T12:30:32;8.20;;;6.18;;
3299;SDS011;1662;49.310;8.134;2024-01-16T12:35:44;8.80;;;6.10;;
3299;SDS011;1662;49.310;8.134;2024-01-16T12:38:10;10.60;;;5.80;;
3299;SDS011;1662;49.310;8.134;2024-01-16T12:40:37;6.32;;;5.45;;
3299;SDS011;1662;49.310;8.134;2024-01-16T12:43:08;12.00;;;5.97;;
3299;SDS011;1662;49.310;8.134;2024-01-16T12:45:34;8.27;;;4.88;;
3299;SDS011;1662;49.310;8.134;2024-01-16T12:48:03;5.30;;;4.60;;
3299;SDS011;1662;49.310;8.134;2024-01-16T12:50:30;10.45;;;6.35;;
3299;SDS011;1662;49.310;8.134;2024-01-16T12:53:03;6.90;;;6.05;;
3299;SDS011;1662;49.310;8.134;2024-01-16T12:55:30;10.10;;;6.10;;
3299;SDS011;1662;49.310;8.134;2024-01-16T12:58:16;10.95;;;6.63;;
3299;SDS011;1662;49.310;8.134;2024-01-16T13:00:46;9.32;;;7.30;;
3299;SDS011;1662;49.310;8.134;2024-01-16T13:03:17;8.02;;;6.28;;
3299;SDS011;1662;49.310;8.134;2024-01-16T13:05:43;13.55;;;7.15;;
3299;SDS011;1662;49.310;8.134;2024-01-16T13:08:19;8.65;;;6.63;;
3299;SDS011;1662;49.310;8.134;2024-01-16T13:11:01;15.23;;;7.03;;
3299;SDS011;1662;49.310;8.134;2024-01-16T13:13:28;8.27;;;6.70;;
3299;SDS011;1662;49.310;8.134;2024-01-16T13:15:54;9.10;;;6.32;;
3299;SDS011;1662;49.310;8.134;2024-01-16T13:18:22;10.73;;;6.72;;
3299;SDS011;1662;49.310;8.134;2024-01-16T13:20:50;9.52;;;6.50;;
3299;SDS011;1662;49.310;8.134;2024-01-16T13:23:16;11.18;;;6.32;;
3299;SDS011;1662;49.310;8.134;2024-01-16T13:25:42;7.70;;;6.23;;
3299;SDS011;1662;49.310;8.134;2024-01-16T13:28:15;11.60;;;7.43;;
3299;SDS011;1662;49.310;8.134;2024-01-16T13:30:42;7.35;;;5.40;;
3299;SDS011;1662;49.310;8.134;2024-01-16T13:33:08;9.73;;;6.72;;
3299;SDS011;1662;49.310;8.134;2024-01-16T13:35:34;9.60;;;6.63;;
3299;SDS011;1662;49.310;8.134;2024-01-16T13:38:04;9.43;;;6.80;;
3299;SDS011;1662;49.310;8.134;2024-01-16T13:40:31;8.20;;;6.32;;
3299;SDS011;1662;49.310;8.134;2024-01-16T13:42:57;7.72;;;5.68;;
3299;SDS011;1662;49.310;8.134;2024-01-16T13:45:22;8.20;;;5.80;;
3299;SDS011;1662;49.310;8.134;2024-01-16T13:47:48;8.40;;;6.00;;
3299;SDS011;1662;49.310;8.134;2024-01-16T13:50:14;13.17;;;5.83;;
3299;SDS011;1662;49.310;8.134;2024-01-16T13:52:40;7.13;;;6.43;;
3299;SDS011;1662;49.310;8.134;2024-01-16T13:55:06;10.33;;;6.00;;
3299;SDS011;1662;49.310;8.134;2024-01-16T13:57:32;7.90;;;6.43;;
3299;SDS011;1662;49.310;8.134;2024-01-16T14:00:05;17.35;;;6.38;;
3299;SDS011;1662;49.310;8.134;2024-01-16T14:02:32;7.18;;;5.32;;
3299;SDS011;1662;49.310;8.134;2024-01-16T14:05:02;6.75;;;5.75;;
3299;SDS011;1662;49.310;8.134;2024-01-16T14:07:28;10.60;;;5.82;;
3299;SDS011;1662;49.310;8.134;2024-01-16T14:09:53;7.10;;;6.40;;
3299;SDS011;1662;49.310;8.134;2024-01-16T14:12:19;9.47;;;6.07;;
3299;SDS011;1662;49.310;8.134;2024-01-16T14:14:45;6.83;;;5.47;;
3299;SDS011;1662;49.310;8.134;2024-01-16T14:17:12;7.30;;;5.75;;
3299;SDS011;1662;49.310;8.134;2024-01-16T14:19:38;8.87;;;5.50;;
3299;SDS011;1662;49.310;8.134;2024-01-16T14:22:06;8.00;;;6.07;;
3299;SDS011;1662;49.310;8.134;2024-01-16T14:24:32;6.40;;;5.37;;
3299;SDS011;1662;49.310;8.134;2024-01-16T14:26:57;7.30;;;5.27;;
3299;SDS011;1662;49.310;8.134;2024-01-16T14:29:23;5.43;;;5.03;;
3299;SDS011;1662;49.310;8.134;2024-01-16T14:31:48;7.40;;;5.87;;
3299;SDS011;1662;49.310;8.134;2024-01-16T14:34:14;8.67;;;5.63;;
3299;SDS011;1662;49.310;8.134;2024-01-16T14:36:40;11.03;;;5.40;;
3299;SDS011;1662;49.310;8.134;2024-01-16T14:39:07;10.35;;;5.70;;
3299;SDS011;1662;49.310;8.134;2024-01-16T14:41:38;8.97;;;5.20;;
3299;SDS011;1662;49.310;8.134;2024-01-16T14:44:04;10.80;;;6.10;;
3299;SDS011;1662;49.310;8.134;2024-01-16T14:46:31;10.90;;;6.05;;
3299;SDS011;1662;49.310;8.134;2024-01-16T14:48:58;6.20;;;4.80;;
3299;SDS011;1662;49.310;8.134;2024-01-16T14:51:23;9.87;;;6.13;;
3299;SDS011;1662;49.310;8.134;2024-01-16T14:53:50;6.97;;;6.20;;
3299;SDS011;1662;49.310;8.134;2024-01-16T14:56:18;6.65;;;5.45;;
3299;SDS011;1662;49.310;8.134;2024-01-16T14:58:45;8.20;;;5.63;;
3299;SDS011;1662;49.310;8.134;2024-01-16T15:01:10;9.03;;;6.73;;
3299;SDS011;1662;49.310;8.134;2024-01-16T15:03:36;9.10;;;6.27;;
3299;SDS011;1662;49.310;8.134;2024-01-16T15:06:02;7.73;;;6.93;;
3299;SDS011;1662;49.310;8.134;2024-01-16T15:08:29;7.13;;;5.97;;
3299;SDS011;1662;49.310;8.134;2024-01-16T15:10:56;9.00;;;8.10;;
3299;SDS011;1662;49.310;8.134;2024-01-16T15:13:25;7.05;;;6.30;;
3299;SDS011;1662;49.310;8.134;2024-01-16T15:15:51;8.82;;;7.20;;
3299;SDS011;1662;49.310;8.134;2024-01-16T15:18:19;5.82;;;4.57;;
3299;SDS011;1662;49.310;8.134;2024-01-16T15:20:44;12.70;;;6.13;;
3299;SDS011;1662;49.310;8.134;2024-01-16T15:23:11;9.00;;;5.32;;